createdAt,value
2019-02-09T00:01:13.656Z,5.52
2019-02-09T00:03:40.596Z,5.47
2019-02-09T00:06:07.131Z,5.40
2019-02-09T00:08:41.092Z,5.34
2019-02-09T00:11:07.688Z,5.29
2019-02-09T00:13:34.283Z,5.33
2019-02-09T00:16:07.982Z,5.33
2019-02-09T00:18:34.577Z,5.31
2019-02-09T00:21:01.094Z,5.38
2019-02-09T00:23:28.231Z,5.31
2019-02-09T00:25:55.062Z,5.35
2019-02-09T00:28:23.680Z,5.33
2019-02-09T00:30:50.358Z,5.32
2019-02-09T00:33:17.137Z,5.37
2019-02-09T00:35:43.642Z,5.52
2019-02-09T00:38:10.421Z,5.58
2019-02-09T00:40:37.012Z,5.53
2019-02-09T00:43:03.584Z,5.62
2019-02-09T00:45:32.859Z,5.75
2019-02-09T00:47:59.399Z,5.77
2019-02-09T00:50:26.015Z,5.70
2019-02-09T00:52:52.646Z,5.69
2019-02-09T00:55:19.567Z,5.76
2019-02-09T00:57:46.066Z,5.70
2019-02-09T01:00:18.422Z,5.74
2019-02-09T01:02:45.335Z,5.67
2019-02-09T01:05:13.641Z,5.67
2019-02-09T01:07:40.437Z,5.65
2019-02-09T01:10:09.361Z,5.71
2019-02-09T01:12:35.980Z,5.76
2019-02-09T01:15:04.466Z,5.70
2019-02-09T01:17:31.031Z,5.68
2019-02-09T01:19:57.534Z,5.62
2019-02-09T01:22:24.077Z,5.54
2019-02-09T01:24:50.636Z,5.50
2019-02-09T01:27:17.116Z,5.47
2019-02-09T01:29:43.624Z,5.46
2019-02-09T01:32:10.090Z,5.44
2019-02-09T01:34:37.110Z,5.41
2019-02-09T01:37:03.723Z,5.37
2019-02-09T01:39:30.542Z,5.28
2019-02-09T01:41:56.998Z,5.30
2019-02-09T01:44:23.453Z,5.23
2019-02-09T01:46:49.934Z,5.24
2019-02-09T01:49:16.627Z,5.25
2019-02-09T01:51:43.101Z,5.33
2019-02-09T01:54:09.672Z,5.53
2019-02-09T01:56:36.314Z,5.50
2019-02-09T01:59:03.035Z,5.56
2019-02-09T02:01:29.516Z,5.65
2019-02-09T02:04:02.252Z,5.76
2019-02-09T02:06:28.721Z,5.84
2019-02-09T02:08:55.477Z,5.92
2019-02-09T02:11:21.955Z,6.03
2019-02-09T02:13:49.132Z,6.02
2019-02-09T02:16:15.612Z,5.93
2019-02-09T02:18:42.096Z,5.87
2019-02-09T02:21:22.945Z,5.86
2019-02-09T02:23:49.416Z,5.82
2019-02-09T02:26:15.938Z,5.92
2019-02-09T02:28:42.393Z,5.89
2019-02-09T02:31:08.899Z,5.86
2019-02-09T02:33:35.365Z,5.85
2019-02-09T02:36:02.049Z,5.78
2019-02-09T02:38:28.908Z,5.80
2019-02-09T02:40:55.381Z,5.79
2019-02-09T02:43:21.858Z,5.81
2019-02-09T02:45:49.033Z,5.82
2019-02-09T02:48:15.766Z,5.84
2019-02-09T02:50:44.848Z,5.88
2019-02-09T02:53:11.326Z,5.80
2019-02-09T02:55:37.862Z,5.88
2019-02-09T02:58:04.519Z,5.94
2019-02-09T03:00:32.889Z,6.03
2019-02-09T03:02:59.947Z,6.11
2019-02-09T03:05:26.646Z,6.13
2019-02-09T03:07:53.917Z,6.13
2019-02-09T03:10:20.716Z,6.14
2019-02-09T03:12:47.211Z,6.16
2019-02-09T03:15:15.936Z,6.21
2019-02-09T03:17:42.892Z,6.25
2019-02-09T03:20:11.118Z,6.23
2019-02-09T03:22:37.617Z,6.25
2019-02-09T03:25:06.041Z,6.20
2019-02-09T03:27:32.838Z,6.22
2019-02-09T03:29:59.360Z,6.18
2019-02-09T03:32:25.841Z,6.18
2019-02-09T03:34:52.312Z,6.13
2019-02-09T03:37:18.835Z,6.08
2019-02-09T03:39:45.293Z,6.09
2019-02-09T03:42:11.821Z,5.99
2019-02-09T03:44:38.634Z,5.92
2019-02-09T03:47:05.125Z,5.80
2019-02-09T03:49:33.681Z,5.68
2019-02-09T03:52:00.214Z,5.56
2019-02-09T03:54:26.689Z,5.49
2019-02-09T03:56:54.866Z,5.47
2019-02-09T03:59:21.627Z,5.37
2019-02-09T04:01:48.366Z,5.25
2019-02-09T04:04:15.025Z,5.15
2019-02-09T04:06:41.730Z,5.05
2019-02-09T04:09:09.235Z,4.94
2019-02-09T04:11:35.749Z,4.92
2019-02-09T04:14:02.319Z,4.86
2019-02-09T04:16:28.809Z,4.85
2019-02-09T04:18:55.267Z,4.84
2019-02-09T04:21:22.110Z,4.81
2019-02-09T04:23:48.579Z,4.93
2019-02-09T04:26:15.317Z,4.97
2019-02-09T04:28:42.202Z,4.98
2019-02-09T04:31:08.703Z,4.98
2019-02-09T04:33:35.157Z,4.93
2019-02-09T04:36:01.616Z,4.93
2019-02-09T04:38:28.095Z,4.92
2019-02-09T04:40:54.560Z,4.95
2019-02-09T04:43:21.060Z,5.00
2019-02-09T04:45:47.791Z,5.02
2019-02-09T04:48:14.255Z,5.01
2019-02-09T04:50:41.080Z,5.11
2019-02-09T04:53:07.916Z,5.13
2019-02-09T04:55:34.418Z,5.18
2019-02-09T04:58:00.895Z,5.25
2019-02-09T05:00:28.730Z,5.23
2019-02-09T05:02:55.607Z,5.19
2019-02-09T05:05:22.291Z,5.17
2019-02-09T05:07:49.254Z,5.24
2019-02-09T05:10:16.327Z,5.23
2019-02-09T05:12:43.242Z,5.31
2019-02-09T05:15:10.360Z,5.28
2019-02-09T05:17:37.215Z,5.29
2019-02-09T05:20:05.822Z,5.32
2019-02-09T05:22:32.562Z,5.24
2019-02-09T05:24:59.393Z,5.22
2019-02-09T05:27:25.966Z,5.14
2019-02-09T05:29:52.442Z,5.14
2019-02-09T05:32:18.930Z,5.12
2019-02-09T05:34:45.382Z,5.10
2019-02-09T05:37:12.119Z,5.02
2019-02-09T05:39:39.517Z,5.05
2019-02-09T05:42:06.031Z,5.08
2019-02-09T05:44:32.476Z,5.01
2019-02-09T05:46:58.996Z,5.06
2019-02-09T05:49:25.773Z,5.01
2019-02-09T05:51:52.237Z,4.97
2019-02-09T05:54:19.800Z,5.06
2019-02-09T05:56:46.257Z,5.10
2019-02-09T05:59:12.703Z,5.18
2019-02-09T06:01:39.178Z,5.21
2019-02-09T06:04:05.658Z,5.16
2019-02-09T06:06:32.117Z,5.05
2019-02-09T06:08:58.592Z,4.86
2019-02-09T06:11:25.050Z,4.83
2019-02-09T06:13:53.597Z,4.81
2019-02-09T06:16:20.341Z,4.75
2019-02-09T06:18:46.800Z,4.69
2019-02-09T06:21:13.618Z,4.70
2019-02-09T06:23:40.087Z,4.74
2019-02-09T06:26:06.740Z,4.70
2019-02-09T06:28:33.488Z,4.69
2019-02-09T06:31:00.193Z,4.67
2019-02-09T06:33:26.689Z,4.72
2019-02-09T06:35:53.143Z,4.75
2019-02-09T06:38:19.881Z,4.76
2019-02-09T06:40:46.637Z,4.72
2019-02-09T06:43:13.141Z,4.76
2019-02-09T06:45:39.778Z,4.93
2019-02-09T06:48:20.624Z,4.97
2019-02-09T06:50:47.395Z,5.01
2019-02-09T06:53:14.314Z,5.11
2019-02-09T06:55:40.787Z,5.21
2019-02-09T06:58:07.252Z,5.22
2019-02-09T07:00:33.708Z,5.28
2019-02-09T07:03:00.240Z,5.31
2019-02-09T07:05:26.689Z,5.32
2019-02-09T07:07:53.173Z,5.37
2019-02-09T07:10:21.310Z,5.41
2019-02-09T07:12:48.257Z,5.49
2019-02-09T07:15:25.620Z,5.48
2019-02-09T07:17:52.502Z,5.57
2019-02-09T07:20:19.413Z,5.51
2019-02-09T07:22:46.822Z,5.47
2019-02-09T07:25:13.408Z,5.52
2019-02-09T07:27:40.000Z,5.45
2019-02-09T07:30:10.154Z,5.41
2019-02-09T07:32:36.631Z,5.44
2019-02-09T07:35:04.563Z,5.53
2019-02-09T07:37:31.048Z,5.52
2019-02-09T07:39:57.520Z,5.54
2019-02-09T07:42:24.344Z,5.61
2019-02-09T07:44:51.554Z,5.65
2019-02-09T07:47:18.367Z,5.67
2019-02-09T07:49:44.833Z,5.76
2019-02-09T07:52:11.601Z,5.74
2019-02-09T07:54:38.492Z,5.79
2019-02-09T07:57:05.412Z,5.95
2019-02-09T07:59:31.890Z,6.22
2019-02-09T08:02:04.398Z,6.34
2019-02-09T08:04:26.985Z,6.39
2019-02-09T08:06:53.768Z,6.50
2019-02-09T08:09:20.263Z,6.67
2019-02-09T08:11:47.448Z,6.83
2019-02-09T08:14:14.114Z,6.98
2019-02-09T08:16:41.340Z,7.03
2019-02-09T08:19:08.147Z,6.98
2019-02-09T08:21:35.662Z,6.92
2019-02-09T08:24:03.320Z,6.89
2019-02-09T08:26:29.829Z,6.85
2019-02-09T08:28:56.349Z,6.81
2019-02-09T08:31:22.906Z,7.01
2019-02-09T08:33:49.432Z,7.28
2019-02-09T08:36:23.631Z,7.29
2019-02-09T08:38:50.103Z,7.34
2019-02-09T08:41:16.663Z,7.40
2019-02-09T08:43:43.522Z,7.66
2019-02-09T08:46:10.067Z,7.98
2019-02-09T08:48:37.667Z,8.00
2019-02-09T08:51:10.629Z,7.78
2019-02-09T08:53:38.367Z,7.57
2019-02-09T08:56:06.100Z,7.37
2019-02-09T08:58:32.814Z,7.44
2019-02-09T09:00:59.374Z,7.48
2019-02-09T09:03:25.853Z,7.48
2019-02-09T09:05:52.438Z,7.46
2019-02-09T09:08:18.930Z,7.42
2019-02-09T09:10:45.605Z,7.36
2019-02-09T09:13:12.079Z,7.37
2019-02-09T09:15:41.217Z,7.37
2019-02-09T09:18:08.228Z,7.37
2019-02-09T09:20:36.263Z,7.41
2019-02-09T09:23:03.177Z,7.44
2019-02-09T09:25:29.667Z,7.45
2019-02-09T09:27:57.295Z,7.48
2019-02-09T09:30:24.834Z,7.50
2019-02-09T09:32:51.409Z,7.50
2019-02-09T09:35:18.005Z,7.59
2019-02-09T09:37:44.583Z,7.62
2019-02-09T09:40:20.216Z,7.56
2019-02-09T09:42:46.970Z,7.58
2019-02-09T09:45:15.921Z,7.65
2019-02-09T09:47:46.653Z,7.55
2019-02-09T09:50:14.445Z,7.72
2019-02-09T09:52:40.984Z,7.98
2019-02-09T09:55:08.547Z,7.94
2019-02-09T09:57:37.069Z,7.86
2019-02-09T10:00:04.692Z,7.92
2019-02-09T10:02:36.396Z,8.00
2019-02-09T10:05:04.881Z,8.06
2019-02-09T10:07:31.473Z,8.11
2019-02-09T10:09:57.949Z,8.04
2019-02-09T10:12:24.460Z,7.91
2019-02-09T10:14:50.964Z,7.94
2019-02-09T10:17:18.509Z,7.90
2019-02-09T10:19:45.000Z,7.84
2019-02-09T10:22:11.514Z,7.72
2019-02-09T10:24:42.249Z,7.77
2019-02-09T10:27:08.810Z,7.80
2019-02-09T10:29:36.737Z,7.90
2019-02-09T10:32:03.350Z,8.30
2019-02-09T10:34:30.222Z,8.45
2019-02-09T10:36:56.744Z,8.67
2019-02-09T10:39:23.491Z,8.57
2019-02-09T10:41:51.031Z,8.46
2019-02-09T10:44:17.895Z,8.41
2019-02-09T10:46:45.390Z,8.35
2019-02-09T10:49:12.181Z,8.28
2019-02-09T10:51:38.715Z,8.24
2019-02-09T10:54:05.258Z,8.16
2019-02-09T10:56:31.825Z,8.11
2019-02-09T10:58:58.617Z,8.23
2019-02-09T11:01:25.210Z,8.25
2019-02-09T11:03:52.076Z,8.50
2019-02-09T11:06:20.734Z,8.56
2019-02-09T11:08:47.360Z,8.90
2019-02-09T11:11:14.177Z,9.05
2019-02-09T11:13:40.674Z,8.91
2019-02-09T11:16:07.267Z,9.10
2019-02-09T11:18:34.371Z,9.36
2019-02-09T11:21:00.879Z,9.13
2019-02-09T11:23:27.366Z,8.81
2019-02-09T11:25:54.708Z,8.83
2019-02-09T11:28:21.547Z,8.80
2019-02-09T11:30:48.116Z,9.31
2019-02-09T11:33:15.048Z,9.57
2019-02-09T11:35:42.546Z,9.82
2019-02-09T11:38:09.660Z,9.72
2019-02-09T11:40:37.290Z,9.38
2019-02-09T11:43:05.500Z,9.76
2019-02-09T11:45:32.369Z,9.93
2019-02-09T11:47:59.415Z,9.87
2019-02-09T11:50:26.015Z,9.99
2019-02-09T11:52:53.667Z,9.96
2019-02-09T11:55:20.427Z,9.99
2019-02-09T11:57:48.148Z,10.10
2019-02-09T12:00:29.258Z,10.18
2019-02-09T12:03:02.817Z,10.16
2019-02-09T12:05:24.800Z,9.94
2019-02-09T12:07:51.526Z,9.63
2019-02-09T12:10:19.150Z,9.63
2019-02-09T12:12:47.500Z,9.55
2019-02-09T12:15:42.307Z,9.69
2019-02-09T12:18:09.148Z,9.66
2019-02-09T12:20:36.202Z,9.43
2019-02-09T12:23:03.350Z,9.26
2019-02-09T12:25:32.251Z,9.22
2019-02-09T12:27:58.844Z,9.21
2019-02-09T12:30:26.644Z,9.27
2019-02-09T12:32:53.495Z,9.21
2019-02-09T12:35:20.628Z,9.31
2019-02-09T12:37:49.248Z,9.71
2019-02-09T12:40:21.757Z,9.84
2019-02-09T12:42:49.356Z,10.10
2019-02-09T12:45:16.432Z,9.94
2019-02-09T12:47:43.070Z,9.76
2019-02-09T12:50:11.211Z,9.87
2019-02-09T12:52:37.841Z,10.05
2019-02-09T12:55:05.157Z,10.28
2019-02-09T12:57:32.735Z,9.98
2019-02-09T12:59:59.330Z,9.65
2019-02-09T13:02:25.930Z,9.83
2019-02-09T13:04:52.452Z,9.76
2019-02-09T13:07:19.067Z,9.58
2019-02-09T13:09:45.703Z,9.40
2019-02-09T13:12:12.439Z,9.33
2019-02-09T13:14:38.971Z,9.42
2019-02-09T13:17:06.362Z,9.45
2019-02-09T13:19:36.130Z,9.81
2019-02-09T13:22:03.063Z,9.64
2019-02-09T13:24:29.862Z,9.82
2019-02-09T13:26:56.370Z,10.04
2019-02-09T13:29:22.903Z,9.99
2019-02-09T13:31:49.493Z,9.96
2019-02-09T13:34:16.051Z,10.02
2019-02-09T13:36:42.602Z,10.07
2019-02-09T13:39:15.179Z,9.80
2019-02-09T13:41:41.923Z,9.45
2019-02-09T13:44:09.624Z,9.16
2019-02-09T13:46:36.134Z,9.02
2019-02-09T13:49:03.129Z,8.88
2019-02-09T13:51:29.786Z,8.91
2019-02-09T13:53:56.278Z,8.96
2019-02-09T13:56:22.826Z,9.21
2019-02-09T13:58:50.395Z,9.36
2019-02-09T14:01:17.372Z,9.30
2019-02-09T14:03:46.944Z,9.30
2019-02-09T14:06:12.288Z,9.34
2019-02-09T14:08:38.790Z,9.50
2019-02-09T14:11:05.363Z,9.52
2019-02-09T14:13:32.386Z,9.44
2019-02-09T14:15:59.025Z,9.35
2019-02-09T14:18:25.538Z,9.41
2019-02-09T14:20:52.130Z,9.44
2019-02-09T14:23:18.738Z,9.37
2019-02-09T14:25:45.996Z,9.32
2019-02-09T14:28:13.543Z,9.16
2019-02-09T14:30:40.667Z,9.04
2019-02-09T14:33:08.803Z,9.01
2019-02-09T14:35:37.208Z,8.89
2019-02-09T14:38:05.169Z,8.81
2019-02-09T14:40:32.827Z,8.79
2019-02-09T14:42:59.487Z,8.78
2019-02-09T14:45:33.800Z,8.79
2019-02-09T14:48:00.308Z,8.81
2019-02-09T14:50:26.810Z,8.89
2019-02-09T14:52:53.479Z,8.95
2019-02-09T14:55:24.027Z,8.96
2019-02-09T14:57:51.457Z,9.00
2019-02-09T15:00:20.022Z,9.05
2019-02-09T15:02:53.720Z,9.08
2019-02-09T15:05:15.683Z,9.07
2019-02-09T15:07:42.716Z,8.98
2019-02-09T15:10:11.986Z,8.89
2019-02-09T15:12:38.679Z,8.87
2019-02-09T15:15:10.965Z,8.88
2019-02-09T15:17:37.982Z,8.82
2019-02-09T15:20:10.583Z,8.82
2019-02-09T15:22:37.832Z,8.81
2019-02-09T15:25:05.989Z,8.85
2019-02-09T15:27:32.473Z,8.81
2019-02-09T15:29:59.619Z,8.66
2019-02-09T15:32:26.126Z,8.52
2019-02-09T15:34:52.777Z,8.42
2019-02-09T15:37:19.276Z,8.32
2019-02-09T15:39:45.786Z,8.22
2019-02-09T15:42:12.506Z,8.09
2019-02-09T15:44:39.343Z,8.04
2019-02-09T15:47:06.697Z,7.99
2019-02-09T15:49:34.176Z,7.93
2019-02-09T15:52:01.355Z,7.81
2019-02-09T15:54:31.351Z,7.74
2019-02-09T15:56:58.712Z,7.72
2019-02-09T15:59:27.227Z,7.69
2019-02-09T16:01:54.744Z,7.67
2019-02-09T16:04:22.973Z,7.58
2019-02-09T16:06:53.862Z,7.59
2019-02-09T16:09:21.258Z,7.61
2019-02-09T16:11:47.745Z,7.59
2019-02-09T16:14:15.241Z,7.55
2019-02-09T16:16:43.834Z,7.50
2019-02-09T16:19:10.375Z,7.51
2019-02-09T16:21:37.118Z,7.47
2019-02-09T16:24:03.707Z,7.48
2019-02-09T16:26:30.258Z,7.47
2019-02-09T16:28:56.724Z,7.41
2019-02-09T16:31:23.225Z,7.33
2019-02-09T16:33:50.400Z,7.21
2019-02-09T16:36:17.015Z,7.13
2019-02-09T16:38:43.517Z,7.05
2019-02-09T16:41:12.759Z,7.09
2019-02-09T16:43:41.804Z,7.06
2019-02-09T16:46:09.470Z,6.94
2019-02-09T16:48:38.327Z,6.91
2019-02-09T16:51:04.926Z,6.80
2019-02-09T16:53:31.525Z,6.75
2019-02-09T16:55:59.748Z,6.79
2019-02-09T16:58:26.378Z,6.76
2019-02-09T17:00:54.263Z,6.76
2019-02-09T17:03:21.014Z,6.81
2019-02-09T17:05:48.386Z,6.75
2019-02-09T17:08:16.804Z,6.71
2019-02-09T17:10:44.118Z,6.63
2019-02-09T17:13:11.304Z,6.64
2019-02-09T17:15:38.052Z,6.66
2019-02-09T17:18:06.597Z,6.69
2019-02-09T17:20:33.127Z,6.71
2019-02-09T17:22:59.698Z,6.76
2019-02-09T17:25:26.119Z,6.79
2019-02-09T17:27:56.650Z,6.66
2019-02-09T17:30:25.137Z,6.70
2019-02-09T17:32:51.848Z,6.64
2019-02-09T17:35:18.816Z,6.57
2019-02-09T17:37:47.246Z,6.55
2019-02-09T17:40:23.875Z,6.54
2019-02-09T17:42:53.291Z,6.46
2019-02-09T17:45:25.501Z,6.44
2019-02-09T17:47:52.700Z,6.43
2019-02-09T17:50:19.470Z,6.37
2019-02-09T17:52:46.472Z,6.45
2019-02-09T17:55:14.178Z,6.60
2019-02-09T17:57:42.760Z,6.63
2019-02-09T18:00:18.430Z,6.59
2019-02-09T18:02:44.919Z,6.52
2019-02-09T18:05:11.571Z,6.56
2019-02-09T18:07:38.087Z,6.61
2019-02-09T18:10:06.187Z,6.70
2019-02-09T18:12:32.649Z,6.73
2019-02-09T18:14:59.271Z,6.79
2019-02-09T18:17:25.752Z,6.74
2019-02-09T18:19:52.415Z,6.76
2019-02-09T18:22:19.254Z,6.83
2019-02-09T18:24:46.062Z,6.89
2019-02-09T18:27:12.539Z,6.84
2019-02-09T18:29:39.079Z,6.83
2019-02-09T18:32:05.833Z,6.80
2019-02-09T18:34:32.573Z,6.79
2019-02-09T18:36:59.166Z,6.79
2019-02-09T18:39:26.031Z,6.74
2019-02-09T18:41:52.526Z,6.74
2019-02-09T18:44:19.083Z,6.78
2019-02-09T18:46:46.175Z,6.73
2019-02-09T18:49:14.976Z,6.86
2019-02-09T18:51:41.545Z,6.84
2019-02-09T18:54:08.111Z,6.90
2019-02-09T18:56:34.706Z,6.95
2019-02-09T18:59:01.376Z,6.88
2019-02-09T19:01:28.174Z,6.81
2019-02-09T19:03:54.824Z,6.79
2019-02-09T19:06:21.684Z,6.71
2019-02-09T19:08:48.344Z,6.68
2019-02-09T19:11:18.038Z,6.65
2019-02-09T19:13:44.939Z,6.67
2019-02-09T19:16:11.682Z,6.64
2019-02-09T19:18:38.859Z,6.49
2019-02-09T19:21:10.827Z,6.44
2019-02-09T19:23:37.549Z,6.48
2019-02-09T19:26:04.198Z,6.52
2019-02-09T19:28:31.335Z,6.44
2019-02-09T19:30:58.208Z,6.36
2019-02-09T19:33:24.847Z,6.39
2019-02-09T19:35:51.494Z,6.37
2019-02-09T19:38:18.224Z,6.37
2019-02-09T19:40:45.206Z,6.30
2019-02-09T19:43:11.945Z,6.18
2019-02-09T19:45:38.775Z,6.13
2019-02-09T19:48:05.825Z,6.20
2019-02-09T19:50:32.567Z,6.26
2019-02-09T19:52:59.690Z,6.38
2019-02-09T19:55:28.849Z,6.36
2019-02-09T19:57:55.701Z,6.32
2019-02-09T20:00:30.120Z,6.18
2019-02-09T20:02:57.259Z,6.09
2019-02-09T20:05:28.784Z,5.98
2019-02-09T20:07:58.261Z,5.82
2019-02-09T20:10:29.808Z,5.67
2019-02-09T20:12:57.107Z,5.51
2019-02-09T20:15:24.086Z,5.50
2019-02-09T20:17:50.607Z,5.51
2019-02-09T20:20:19.229Z,5.43
2019-02-09T20:22:46.364Z,5.44
2019-02-09T20:25:15.680Z,5.34
2019-02-09T20:27:42.392Z,5.29
2019-02-09T20:30:13.945Z,5.30
2019-02-09T20:32:41.373Z,5.38
2019-02-09T20:35:09.208Z,5.41
2019-02-09T20:37:36.112Z,5.66
2019-02-09T20:40:05.075Z,5.74
2019-02-09T20:42:32.563Z,5.79
2019-02-09T20:44:59.904Z,5.88
2019-02-09T20:47:27.134Z,5.94
2019-02-09T20:49:55.127Z,6.04
2019-02-09T20:52:21.932Z,6.11
2019-02-09T20:54:49.044Z,6.19
2019-02-09T20:57:15.622Z,6.28
2019-02-09T20:59:42.321Z,6.34
2019-02-09T21:02:09.084Z,6.41
2019-02-09T21:04:35.767Z,6.40
2019-02-09T21:07:02.880Z,6.41
2019-02-09T21:09:29.544Z,6.45
2019-02-09T21:11:56.481Z,6.50
2019-02-09T21:14:23.016Z,6.53
2019-02-09T21:16:53.309Z,6.56
2019-02-09T21:19:20.064Z,6.56
2019-02-09T21:21:46.639Z,6.58
2019-02-09T21:24:13.570Z,6.64
2019-02-09T21:26:40.106Z,6.67
2019-02-09T21:29:14.561Z,6.69
2019-02-09T21:31:46.970Z,6.72
2019-02-09T21:34:14.556Z,6.70
2019-02-09T21:36:41.046Z,6.70
2019-02-09T21:39:08.300Z,6.75
2019-02-09T21:41:36.240Z,6.70
2019-02-09T21:44:03.312Z,6.64
2019-02-09T21:46:29.840Z,6.64
2019-02-09T21:48:56.390Z,6.64
2019-02-09T21:51:29.173Z,6.63
2019-02-09T21:53:55.713Z,6.65
2019-02-09T21:56:22.306Z,6.61
2019-02-09T21:58:48.956Z,6.61
2019-02-09T22:01:15.456Z,6.52
2019-02-09T22:03:42.203Z,6.37
2019-02-09T22:06:08.799Z,6.40
2019-02-09T22:08:35.291Z,6.28
2019-02-09T22:11:02.383Z,6.15
2019-02-09T22:13:29.437Z,6.10
2019-02-09T22:15:55.984Z,6.05
2019-02-09T22:18:22.508Z,6.02
2019-02-09T22:20:52.856Z,5.97
2019-02-09T22:23:17.952Z,5.91
2019-02-09T22:25:48.643Z,5.90
2019-02-09T22:28:15.123Z,5.93
2019-02-09T22:30:42.991Z,5.93
2019-02-09T22:33:09.694Z,5.84
2019-02-09T22:35:36.503Z,5.79
2019-02-09T22:38:04.911Z,5.82
2019-02-09T22:40:32.695Z,5.72
2019-02-09T22:43:00.412Z,5.75
2019-02-09T22:45:28.007Z,5.71
2019-02-09T22:47:55.274Z,5.69
2019-02-09T22:50:30.682Z,5.69
2019-02-09T22:52:57.530Z,5.74
2019-02-09T22:55:24.448Z,5.73
2019-02-09T22:57:51.119Z,5.67
2019-02-09T23:00:35.520Z,5.62
2019-02-09T23:03:02.468Z,5.66
2019-02-09T23:06:34.804Z,5.68
2019-02-09T23:09:01.744Z,5.70
2019-02-09T23:11:28.429Z,5.77
2019-02-09T23:13:55.111Z,5.79
2019-02-09T23:16:22.171Z,5.85
2019-02-09T23:18:48.798Z,5.90
2019-02-09T23:21:15.516Z,5.95
2019-02-09T23:23:42.163Z,5.95
2019-02-09T23:26:08.774Z,5.92
2019-02-09T23:28:35.277Z,5.95
2019-02-09T23:31:06.392Z,5.96
2019-02-09T23:33:33.151Z,5.91
2019-02-09T23:35:59.778Z,5.96
2019-02-09T23:38:26.357Z,5.96
2019-02-09T23:40:54.103Z,6.04
2019-02-09T23:43:21.131Z,5.99
2019-02-09T23:45:47.719Z,5.99
2019-02-09T23:48:14.246Z,5.96
2019-02-09T23:50:41.100Z,5.96
2019-02-09T23:53:08.007Z,5.87
2019-02-09T23:55:34.841Z,5.77
2019-02-09T23:58:01.446Z,5.70
